Time;durP1;ratioP1;P1;durP2;ratioP2;P2;SDS_P1;SDS_P2;PMS_P1;PMS_P2;Temp;Humidity;BMP_temperature;BMP_pressure;BME280_temperature;BME280_humidity;BME280_pressure;Samples;Min_cycle;Max_cycle;Signal;HPM_P1;HPM_P2
2023/01/18 00:01:30;;;;;;;7.50;2.65;;;;;;;-0.01;100.00;98613.97;5041602;28;20799;-77
2023/01/18 00:03:59;;;;;;;4.18;2.22;;;;;;;0.01;100.00;98606.06;5010794;28;20099;-77
2023/01/18 00:06:27;;;;;;;5.20;2.22;;;;;;;0.01;100.00;98596.50;5000627;28;20493;-77
2023/01/18 00:08:55;;;;;;;4.78;1.27;;;;;;;0.02;100.00;98595.56;5029595;28;20120;-77
2023/01/18 00:11:23;;;;;;;1.48;0.88;;;;;;;0.01;100.00;98590.47;5033916;28;20078;-78
2023/01/18 00:13:52;;;;;;;1.58;0.85;;;;;;;0.02;100.00;98576.56;5030231;28;20038;-77
2023/01/18 00:16:21;;;;;;;0.80;0.60;;;;;;;0.01;100.00;98556.72;5027092;28;20073;-77
2023/01/18 00:18:53;;;;;;;2.08;0.50;;;;;;;-0.01;100.00;98530.88;5024379;28;20103;-78
2023/01/18 00:21:24;;;;;;;1.33;0.77;;;;;;;-0.02;100.00;98500.66;5052689;28;20086;-78
2023/01/18 00:23:51;;;;;;;0.63;0.30;;;;;;;-0.02;100.00;98500.66;5033104;28;20056;-77
2023/01/18 00:26:21;;;;;;;0.80;0.47;;;;;;;-0.03;100.00;98509.38;5024599;28;20032;-77
2023/01/18 00:28:50;;;;;;;3.15;0.80;;;;;;;-0.04;100.00;98531.09;5022315;28;20493;-77
2023/01/18 00:31:20;;;;;;;1.65;0.63;;;;;;;-0.05;100.00;98542.47;5053533;28;20029;-78
2023/01/18 00:33:49;;;;;;;1.05;0.47;;;;;;;-0.06;100.00;98533.84;5044733;28;20526;-77
2023/01/18 00:36:17;;;;;;;1.05;0.50;;;;;;;-0.08;100.00;98553.09;5047056;28;20039;-78
2023/01/18 00:38:52;;;;;;;1.50;0.50;;;;;;;-0.05;100.00;98561.44;5030027;28;20451;-78
2023/01/18 00:41:21;;;;;;;0.85;0.60;;;;;;;-0.09;100.00;98565.25;5044446;28;20492;-78
2023/01/18 00:43:50;;;;;;;2.53;1.30;;;;;;;-0.08;100.00;98585.06;5037628;28;20767;-78
2023/01/18 00:46:21;;;;;;;3.42;1.38;;;;;;;-0.10;100.00;98591.34;5042242;28;20061;-78
2023/01/18 00:48:51;;;;;;;1.65;0.68;;;;;;;-0.11;100.00;98585.31;5052823;28;20087;-78
2023/01/18 00:51:22;;;;;;;1.08;0.70;;;;;;;-0.09;100.00;98591.22;5036385;28;20033;-78
2023/01/18 00:53:51;;;;;;;1.48;0.80;;;;;;;-0.08;100.00;98598.06;5046168;28;20047;-78
2023/01/18 00:56:21;;;;;;;3.33;0.80;;;;;;;-0.05;100.00;98597.81;5033916;28;20033;-78
2023/01/18 00:58:51;;;;;;;5.43;0.90;;;;;;;-0.03;100.00;98595.09;5025711;28;20064;-78
2023/01/18 01:01:20;;;;;;;3.53;0.68;;;;;;;-0.02;100.00;98592.38;5047004;28;20033;-78
2023/01/18 01:06:45;;;;;;;1.63;0.52;;;;;;;0.04;100.00;98606.66;5014722;28;20048;-78
2023/01/18 01:09:33;;;;;;;1.70;0.88;;;;;;;0.09;100.00;98595.91;5041250;28;20111;-77
2023/01/18 01:26:09;;;;;;;11.30;4.68;;;;;;;0.02;100.00;98586.97;5044273;28;20037;-78
2023/01/18 01:28:41;;;;;;;13.57;5.32;;;;;;;0.02;100.00;98602.53;5042216;28;20082;-78
2023/01/18 01:31:11;;;;;;;34.67;13.07;;;;;;;0.02;100.00;98605.94;5042610;28;20032;-77
2023/01/18 01:33:42;;;;;;;7.88;1.95;;;;;;;0.02;100.00;98620.72;5010041;28;20381;-78
2023/01/18 01:36:14;;;;;;;11.60;3.05;;;;;;;0.01;100.00;98619.06;5035726;28;20091;-78
2023/01/18 01:38:44;;;;;;;22.13;7.32;;;;;;;0.00;100.00;98613.06;5043769;28;20044;-78
2023/01/18 01:41:18;;;;;;;41.15;12.30;;;;;;;0.05;100.00;98612.69;5041623;28;20056;-78
2023/01/18 01:43:56;;;;;;;19.95;6.55;;;;;;;0.08;100.00;98612.44;5037278;28;20481;-78
2023/01/18 01:46:47;;;;;;;2.78;1.10;;;;;;;0.09;100.00;98608.88;5028063;28;20091;-78
2023/01/18 01:49:22;;;;;;;28.42;7.30;;;;;;;0.10;100.00;98608.75;5037850;28;20057;-78
2023/01/18 01:51:54;;;;;;;4.78;1.05;;;;;;;0.13;100.00;98615.47;5041139;28;20393;-78
2023/01/18 01:54:32;;;;;;;36.75;9.60;;;;;;;0.13;100.00;98612.88;4964389;28;20483;-78
2023/01/18 01:57:27;;;;;;;2.55;1.10;;;;;;;0.14;100.00;98618.91;5037364;28;20057;-78
2023/01/18 02:00:11;;;;;;;3.70;0.88;;;;;;;0.10;100.00;98608.75;5030486;28;20049;-78
2023/01/18 02:02:43;;;;;;;4.43;0.85;;;;;;;0.09;100.00;98614.91;5033073;28;20044;-78
2023/01/18 02:05:16;;;;;;;4.13;0.98;;;;;;;0.08;100.00;98612.44;5048448;28;20041;-78
2023/01/18 02:07:47;;;;;;;9.43;1.20;;;;;;;0.06;100.00;98630.75;5046922;28;20178;-78
2023/01/18 02:10:16;;;;;;;3.42;0.70;;;;;;;0.04;100.00;98643.03;5042141;28;20032;-78
2023/01/18 02:12:48;;;;;;;1.75;0.30;;;;;;;0.08;100.00;98654.00;5042800;28;20135;-78
2023/01/18 02:15:20;;;;;;;2.05;0.40;;;;;;;0.07;100.00;98652.34;5024779;28;20029;-78
2023/01/18 02:18:08;;;;;;;2.95;0.52;;;;;;;0.10;100.00;98662.47;5045223;28;20029;-78
2023/01/18 02:21:05;;;;;;;5.43;0.57;;;;;;;0.13;100.00;98667.44;5041142;28;20055;-78
2023/01/18 02:24:07;;;;;;;3.13;0.47;;;;;;;0.15;100.00;98675.94;5055970;28;20052;-78
2023/01/18 02:26:57;;;;;;;4.45;0.35;;;;;;;0.15;100.00;98688.09;5030632;28;20048;-78
2023/01/18 02:29:54;;;;;;;1.90;0.63;;;;;;;0.18;100.00;98672.28;5042934;28;22285;-77
2023/01/18 02:32:38;;;;;;;1.25;0.38;;;;;;;0.17;100.00;98668.03;5026693;28;20037;-78
2023/01/18 02:35:20;;;;;;;2.47;0.30;;;;;;;0.15;100.00;98656.94;5062321;28;20389;-78
2023/01/18 02:38:00;;;;;;;2.83;0.77;;;;;;;0.15;100.00;98667.31;5079493;28;20032;-78
2023/01/18 02:40:40;;;;;;;2.60;0.57;;;;;;;0.11;100.00;98685.75;5043971;28;20117;-78
2023/01/18 02:48:48;;;;;;;2.05;0.70;;;;;;;0.08;100.00;98680.78;5061308;28;20031;-78
2023/01/18 02:51:15;;;;;;;3.83;1.35;;;;;;;0.07;100.00;98688.72;5051835;28;20039;-78
2023/01/18 02:53:46;;;;;;;0.68;0.57;;;;;;;0.08;100.00;98664.41;5042782;28;20041;-77
2023/01/18 02:56:25;;;;;;;6.32;1.20;;;;;;;0.09;100.00;98666.88;5066052;28;20124;-77
2023/01/18 02:58:58;;;;;;;4.80;2.00;;;;;;;0.11;100.00;98664.16;5055900;28;20049;-77
2023/01/18 03:02:06;;;;;;;7.90;0.82;;;;;;;0.14;100.00;98665.69;5048060;28;20044;-78
2023/01/18 03:04:53;;;;;;;6.47;1.00;;;;;;;0.13;100.00;98661.44;5041125;28;20032;-77
2023/01/18 03:07:32;;;;;;;1.30;0.30;;;;;;;0.16;100.00;98671.59;5065092;28;20412;-78
2023/01/18 03:10:03;;;;;;;3.78;1.02;;;;;;;0.12;100.00;98689.19;5066199;28;20123;-77
2023/01/18 03:12:46;;;;;;;3.65;1.10;;;;;;;0.09;100.00;98698.06;5069668;28;20044;-78
2023/01/18 03:15:35;;;;;;;5.07;1.10;;;;;;;0.07;100.00;98694.75;5057867;28;20043;-78
2023/01/18 03:18:20;;;;;;;4.18;0.63;;;;;;;0.06;100.00;98697.47;5054312;28;20083;-77
2023/01/18 03:20:54;;;;;;;7.57;1.00;;;;;;;0.04;100.00;98709.72;5056639;28;20451;-77
2023/01/18 03:23:39;;;;;;;6.43;1.90;;;;;;;0.05;100.00;98714.00;5059524;28;20032;-77
2023/01/18 03:26:10;;;;;;;1.40;0.57;;;;;;;0.04;100.00;98714.94;5054839;28;20573;-77
2023/01/18 03:34:44;;;;;;;7.65;2.33;;;;;;;0.07;100.00;98715.53;5060577;28;20057;-78
2023/01/18 03:37:36;;;;;;;5.82;1.98;;;;;;;0.08;100.00;98717.16;5034729;28;20076;-77
2023/01/18 03:40:21;;;;;;;5.43;2.13;;;;;;;0.11;100.00;98714.31;5063870;28;20067;-78
2023/01/18 03:43:13;;;;;;;2.25;0.80;;;;;;;0.15;100.00;98724.47;5053824;28;20071;-77
2023/01/18 03:45:44;;;;;;;0.80;0.40;;;;;;;0.16;100.00;98726.97;5045747;28;20033;-78
2023/01/18 03:48:13;;;;;;;2.85;0.80;;;;;;;0.23;100.00;98730.75;5045786;28;20396;-77
2023/01/18 03:50:59;;;;;;;3.38;0.70;;;;;;;0.27;100.00;98722.72;5068201;28;20037;-77
2023/01/18 03:53:38;;;;;;;6.30;1.30;;;;;;;0.36;100.00;98720.22;5066082;28;20037;-77
2023/01/18 03:56:21;;;;;;;6.05;1.00;;;;;;;0.40;100.00;98718.19;5066679;28;20024;-78
2023/01/18 03:58:53;;;;;;;3.10;0.68;;;;;;;0.45;100.00;98723.00;5066497;28;20029;-78
2023/01/18 04:01:22;;;;;;;6.05;0.75;;;;;;;0.47;100.00;98726.31;5058957;28;20044;-78
2023/01/18 04:03:49;;;;;;;3.90;1.00;;;;;;;0.49;100.00;98711.44;5030581;28;20032;-77
2023/01/18 04:06:21;;;;;;;6.35;1.35;;;;;;;0.54;100.00;98704.06;5066742;28;20024;-78
2023/01/18 04:08:49;;;;;;;3.70;0.63;;;;;;;0.58;100.00;98704.66;5032619;28;20036;-78
2023/01/18 04:11:18;;;;;;;3.13;0.63;;;;;;;0.59;100.00;98720.13;5060611;28;20031;-78
2023/01/18 04:13:46;;;;;;;5.78;2.00;;;;;;;0.63;100.00;98723.31;5064962;28;20035;-78
2023/01/18 04:16:14;;;;;;;4.85;0.85;;;;;;;0.64;100.00;98721.56;5035247;28;20111;-78
2023/01/18 04:18:42;;;;;;;3.55;0.73;;;;;;;0.65;100.00;98720.59;5053220;28;20040;-78
2023/01/18 04:21:11;;;;;;;2.45;0.60;;;;;;;0.64;100.00;98737.16;5029043;28;20038;-78
2023/01/18 04:23:38;;;;;;;2.42;0.73;;;;;;;0.68;100.00;98735.97;5038709;28;20044;-78
2023/01/18 04:26:06;;;;;;;5.50;0.90;;;;;;;0.65;100.00;98731.84;5046343;28;20040;-78
2023/01/18 04:28:34;;;;;;;5.63;1.00;;;;;;;0.69;100.00;98745.41;5047367;28;20033;-78
2023/01/18 04:31:03;;;;;;;5.22;0.40;;;;;;;0.65;100.00;98749.22;5046255;28;20037;-78
2023/01/18 04:33:30;;;;;;;3.05;0.45;;;;;;;0.69;100.00;98743.63;5023020;28;20134;-78
2023/01/18 04:35:58;;;;;;;4.53;0.85;;;;;;;0.69;100.00;98761.00;5048832;28;20036;-78
2023/01/18 04:38:27;;;;;;;2.92;0.60;;;;;;;0.75;100.00;98776.13;5049596;28;20039;-78
2023/01/18 04:40:54;;;;;;;2.78;0.55;;;;;;;0.72;100.00;98791.97;5051634;28;20039;-78
2023/01/18 04:43:22;;;;;;;4.07;0.50;;;;;;;0.70;100.00;98789.50;5064310;28;20041;-78
2023/01/18 04:45:54;;;;;;;5.00;0.90;;;;;;;0.73;100.00;98797.03;5042497;28;20033;-79
2023/01/18 04:48:23;;;;;;;3.22;0.90;;;;;;;0.76;100.00;98803.78;5060976;28;20068;-78
2023/01/18 04:50:51;;;;;;;4.65;0.73;;;;;;;0.75;100.00;98799.53;5044325;28;20033;-78
2023/01/18 04:53:20;;;;;;;6.78;0.75;;;;;;;0.76;100.00;98792.56;5054256;28;20037;-78
2023/01/18 04:55:48;;;;;;;2.80;0.70;;;;;;;0.74;100.00;98788.31;5043114;28;20068;-78
2023/01/18 04:58:16;;;;;;;3.38;0.70;;;;;;;0.76;100.00;98790.78;5037131;28;20037;-78
2023/01/18 05:00:44;;;;;;;1.27;0.43;;;;;;;0.76;100.00;98790.78;5046810;28;21054;-78
2023/01/18 05:03:11;;;;;;;2.90;0.80;;;;;;;0.77;100.00;98792.44;5045413;28;20140;-78
2023/01/18 05:05:40;;;;;;;13.50;11.02;;;;;;;0.74;100.00;98805.69;5041774;28;20034;-78
2023/01/18 05:08:08;;;;;;;3.17;0.70;;;;;;;0.75;100.00;98817.72;5065663;28;20037;-79
2023/01/18 05:10:37;;;;;;;5.57;0.95;;;;;;;0.71;100.00;98830.16;5062146;28;20041;-79
2023/01/18 05:13:04;;;;;;;6.10;1.20;;;;;;;0.67;100.00;98831.34;5046425;28;20036;-79
2023/01/18 05:15:33;;;;;;;2.83;0.68;;;;;;;0.64;100.00;98831.59;5037715;28;20029;-79
2023/01/18 05:18:01;;;;;;;5.78;0.60;;;;;;;0.65;100.00;98835.84;5039683;28;20044;-79
2023/01/18 05:20:31;;;;;;;5.55;1.17;;;;;;;0.63;100.00;98824.75;5045142;28;20072;-79
2023/01/18 05:23:09;;;;;;;5.20;1.00;;;;;;;0.61;100.00;98850.03;5019448;28;20064;-79
2023/01/18 05:25:39;;;;;;;9.23;0.93;;;;;;;0.58;100.00;98845.06;5044802;28;20037;-78
2023/01/18 05:28:08;;;;;;;7.55;0.85;;;;;;;0.60;100.00;98853.59;5011546;28;20505;-78
2023/01/18 05:30:41;;;;;;;8.88;1.40;;;;;;;0.59;100.00;98855.34;5020174;28;20096;-78
2023/01/18 05:33:11;;;;;;;6.88;1.67;;;;;;;0.57;100.00;98862.47;5009904;28;20037;-78
2023/01/18 05:35:40;;;;;;;10.25;2.28;;;;;;;0.55;100.00;98866.09;5016365;28;20037;-78
2023/01/18 05:38:08;;;;;;;12.52;1.55;;;;;;;0.52;100.00;98877.59;5042841;28;20052;-79
2023/01/18 05:40:35;;;;;;;7.38;1.00;;;;;;;0.52;100.00;98874.97;5030128;28;20565;-79
2023/01/18 05:43:03;;;;;;;9.52;0.90;;;;;;;0.51;100.00;98881.09;5045977;28;20540;-78
2023/01/18 05:45:32;;;;;;;2.67;0.63;;;;;;;0.55;100.00;98887.75;5042497;28;20044;-78
2023/01/18 05:48:00;;;;;;;1.27;0.40;;;;;;;0.53;100.00;98888.78;5039441;28;20474;-79
2023/01/18 05:50:29;;;;;;;3.95;0.80;;;;;;;0.53;100.00;98886.19;5041336;28;20112;-79
2023/01/18 05:53:00;;;;;;;3.97;0.63;;;;;;;0.55;100.00;98877.34;4963584;28;20032;-78
2023/01/18 05:55:29;;;;;;;5.45;0.55;;;;;;;0.56;100.00;98893.75;5022116;28;20033;-78
2023/01/18 05:57:58;;;;;;;6.03;0.65;;;;;;;0.56;100.00;98892.00;5034570;28;20033;-78
2023/01/18 06:00:26;;;;;;;8.27;0.40;;;;;;;0.56;100.00;98888.53;5006966;28;20247;-77
2023/01/18 06:02:55;;;;;;;2.30;0.47;;;;;;;0.57;100.00;98891.06;5033427;28;20040;-78
2023/01/18 06:05:23;;;;;;;3.03;0.57;;;;;;;0.57;100.00;98896.25;5022209;28;20528;-77
2023/01/18 06:07:51;;;;;;;2.80;0.50;;;;;;;0.58;100.00;98891.88;5033963;28;20064;-78
2023/01/18 06:10:19;;;;;;;3.40;0.40;;;;;;;0.57;100.00;98893.66;5016196;28;20051;-77
2023/01/18 06:12:47;;;;;;;2.72;0.60;;;;;;;0.62;100.00;98898.50;5033122;28;20041;-77
2023/01/18 06:15:16;;;;;;;4.78;0.57;;;;;;;0.62;100.00;98895.91;5016199;28;20386;-78
2023/01/18 06:17:47;;;;;;;2.97;0.60;;;;;;;0.66;100.00;98896.47;5039899;28;20057;-78
2023/01/18 06:20:16;;;;;;;6.93;0.73;;;;;;;0.68;100.00;98898.03;5050500;28;20084;-78
2023/01/18 06:22:45;;;;;;;9.15;0.50;;;;;;;0.75;100.00;98903.56;5043720;28;20033;-77
2023/01/18 06:25:12;;;;;;;6.55;0.93;;;;;;;0.78;100.00;98918.13;5045858;28;20033;-78
2023/01/18 06:27:41;;;;;;;2.97;0.50;;;;;;;0.82;100.00;98932.53;5041356;28;20037;-79
2023/01/18 06:30:09;;;;;;;8.50;1.15;;;;;;;0.83;100.00;98926.38;5013636;28;20067;-78
2023/01/18 06:32:39;;;;;;;8.90;0.75;;;;;;;0.90;100.00;98931.94;5045185;28;20498;-78
2023/01/18 06:35:09;;;;;;;6.57;0.80;;;;;;;0.95;100.00;98945.41;5024688;28;20052;-78
2023/01/18 06:37:39;;;;;;;2.10;0.45;;;;;;;0.97;100.00;98959.13;5064207;28;20053;-79
2023/01/18 06:40:09;;;;;;;5.22;0.47;;;;;;;1.02;100.00;98959.59;5031469;28;20474;-79
2023/01/18 06:42:37;;;;;;;8.35;0.95;;;;;;;1.05;100.00;98977.56;5045734;28;20047;-78
2023/01/18 06:45:05;;;;;;;3.55;0.40;;;;;;;1.10;100.00;98991.06;5044595;28;20127;-78
2023/01/18 06:47:33;;;;;;;3.90;0.43;;;;;;;1.12;100.00;99006.53;5065754;28;20028;-78
2023/01/18 06:50:01;;;;;;;1.60;0.20;;;;;;;1.08;100.00;99016.34;5045121;28;20108;-78
2023/01/18 06:52:29;;;;;;;5.70;0.47;;;;;;;1.06;100.00;99027.84;5046389;28;20090;-79
2023/01/18 06:54:58;;;;;;;6.85;0.45;;;;;;;1.04;100.00;99025.34;5038213;28;20560;-79
2023/01/18 06:57:25;;;;;;;2.65;0.40;;;;;;;1.03;100.00;99036.72;5044902;28;20477;-77
2023/01/18 06:59:55;;;;;;;0.95;0.20;;;;;;;0.94;100.00;99033.03;5015569;28;20033;-77
2023/01/18 07:02:22;;;;;;;3.42;0.22;;;;;;;1.01;100.00;99025.59;5045132;28;20057;-77
2023/01/18 07:04:51;;;;;;;3.83;0.52;;;;;;;1.09;100.00;99036.25;5038778;28;20033;-77
2023/01/18 07:07:19;;;;;;;5.47;0.50;;;;;;;1.13;100.00;99038.63;5044319;28;20044;-77
2023/01/18 07:09:48;;;;;;;2.03;0.50;;;;;;;1.19;100.00;99038.13;5045609;28;20035;-77
2023/01/18 07:12:17;;;;;;;3.20;0.73;;;;;;;1.23;100.00;99039.53;5046571;28;20025;-77
2023/01/18 07:14:45;;;;;;;1.17;0.20;;;;;;;1.29;100.00;99048.69;5024740;28;20033;-77
2023/01/18 07:17:14;;;;;;;5.72;1.80;;;;;;;1.33;100.00;99056.13;5041205;28;20032;-77
2023/01/18 07:19:43;;;;;;;4.47;0.57;;;;;;;1.34;100.00;99055.16;5026290;28;20053;-77
2023/01/18 07:22:13;;;;;;;2.30;0.43;;;;;;;1.36;100.00;99068.06;5041875;28;20040;-77
2023/01/18 07:24:42;;;;;;;4.85;0.60;;;;;;;1.33;100.00;99069.16;5034715;28;20493;-77
2023/01/18 07:27:09;;;;;;;2.97;0.30;;;;;;;1.29;100.00;99078.13;5016274;28;20034;-77
2023/01/18 07:29:37;;;;;;;4.93;0.75;;;;;;;1.28;100.00;99070.44;5040848;28;20505;-77
2023/01/18 07:32:05;;;;;;;5.10;1.50;;;;;;;1.28;100.00;99081.69;5053503;28;20037;-77
2023/01/18 07:34:34;;;;;;;4.85;0.50;;;;;;;1.27;100.00;99087.00;5038390;28;20041;-77
2023/01/18 07:37:01;;;;;;;4.82;0.40;;;;;;;1.26;100.00;99101.78;5027781;28;20068;-78
2023/01/18 07:39:29;;;;;;;4.68;1.02;;;;;;;1.24;100.00;99101.09;5039256;28;20030;-78
2023/01/18 07:41:57;;;;;;;4.18;0.93;;;;;;;1.21;100.00;99104.75;5017591;28;20032;-77
2023/01/18 07:44:25;;;;;;;3.10;0.40;;;;;;;1.22;100.00;99103.81;5048868;28;20033;-77
2023/01/18 07:46:52;;;;;;;8.23;0.85;;;;;;;1.21;100.00;99104.75;5040890;28;20058;-77
2023/01/18 07:49:21;;;;;;;3.75;0.43;;;;;;;1.22;100.00;99110.78;5041743;28;20036;-77
2023/01/18 07:51:49;;;;;;;7.35;1.48;;;;;;;1.19;100.00;99118.81;5040279;28;20040;-77
2023/01/18 07:54:19;;;;;;;2.83;0.80;;;;;;;1.23;100.00;99118.47;5028566;28;20076;-77
2023/01/18 07:56:47;;;;;;;8.93;1.83;;;;;;;1.21;100.00;99116.94;5030453;28;20047;-77
2023/01/18 07:59:15;;;;;;;5.43;0.85;;;;;;;1.20;100.00;99126.53;5044014;28;20029;-77
2023/01/18 08:01:44;;;;;;;3.80;0.52;;;;;;;1.19;100.00;99121.44;4995621;28;20029;-76
2023/01/18 08:04:12;;;;;;;5.50;0.90;;;;;;;1.17;100.00;99138.94;5039709;28;20197;-77
2023/01/18 08:06:40;;;;;;;12.55;2.45;;;;;;;1.14;100.00;99134.78;5010261;28;20033;-77
2023/01/18 08:09:07;;;;;;;6.40;1.50;;;;;;;1.10;100.00;99136.78;5032346;28;20032;-77
2023/01/18 08:11:36;;;;;;;6.45;1.00;;;;;;;1.10;100.00;99133.34;5033062;28;20143;-77
2023/01/18 08:14:04;;;;;;;8.57;1.27;;;;;;;1.02;100.00;99144.34;5049510;28;20033;-77
2023/01/18 08:16:32;;;;;;;7.88;1.00;;;;;;;0.99;100.00;99142.81;5046863;28;20363;-77
2023/01/18 08:19:00;;;;;;;2.63;0.80;;;;;;;0.92;100.00;99140.78;5043146;28;20039;-77
2023/01/18 08:21:30;;;;;;;5.15;0.57;;;;;;;0.87;100.00;99143.72;5065084;28;20104;-77
2023/01/18 08:24:00;;;;;;;4.78;0.50;;;;;;;0.79;100.00;99139.09;5058391;28;20564;-77
2023/01/18 08:26:30;;;;;;;5.38;0.90;;;;;;;0.74;100.00;99143.81;5062190;28;20032;-77
2023/01/18 08:28:59;;;;;;;9.10;1.27;;;;;;;0.67;100.00;99140.81;5028541;28;20024;-77
2023/01/18 08:31:27;;;;;;;7.35;1.35;;;;;;;0.59;100.00;99124.97;5059629;28;20033;-77
2023/01/18 08:33:56;;;;;;;8.52;0.68;;;;;;;0.56;100.00;99132.97;5050238;28;20043;-76
2023/01/18 08:36:25;;;;;;;5.07;1.10;;;;;;;0.52;100.00;99136.75;5059005;28;20101;-77
2023/01/18 08:38:56;;;;;;;3.55;0.73;;;;;;;0.46;100.00;99132.81;5054097;28;20062;-77
2023/01/18 08:41:29;;;;;;;3.05;0.68;;;;;;;0.40;100.00;99125.47;5067548;28;20097;-77
2023/01/18 08:43:59;;;;;;;9.50;1.33;;;;;;;0.34;100.00;99137.97;5047997;28;20485;-77
2023/01/18 08:46:29;;;;;;;9.55;1.08;;;;;;;0.34;100.00;99156.16;5064436;28;20033;-77
2023/01/18 08:48:59;;;;;;;7.15;1.38;;;;;;;0.32;100.00;99168.44;5029786;28;20033;-77
2023/01/18 08:51:28;;;;;;;5.97;0.77;;;;;;;0.32;100.00;99165.03;5051648;28;20029;-78
2023/01/18 08:53:57;;;;;;;4.53;0.80;;;;;;;0.29;100.00;99179.06;5056881;28;20052;-78
2023/01/18 08:56:27;;;;;;;3.88;0.60;;;;;;;0.31;100.00;99186.75;5063718;28;20421;-77
2023/01/18 08:58:58;;;;;;;5.07;0.70;;;;;;;0.32;100.00;99199.63;5034123;28;20041;-76
2023/01/18 09:01:28;;;;;;;14.57;1.67;;;;;;;0.36;100.00;99197.66;5062054;28;20086;-76
2023/01/18 09:03:58;;;;;;;7.20;1.33;;;;;;;0.46;100.00;99200.41;5054224;28;20174;-76
2023/01/18 09:06:30;;;;;;;4.28;0.60;;;;;;;0.55;100.00;99211.91;5038204;28;20504;-76
2023/01/18 09:09:00;;;;;;;7.32;1.00;;;;;;;0.66;100.00;99219.78;5032091;28;20032;-76
2023/01/18 09:11:28;;;;;;;8.30;1.10;;;;;;;0.72;100.00;99221.94;5059980;28;20082;-76
2023/01/18 09:13:58;;;;;;;6.18;1.08;;;;;;;0.84;100.00;99222.00;5066084;28;20041;-76
2023/01/18 09:16:29;;;;;;;9.48;1.00;;;;;;;0.90;100.00;99231.94;5075092;28;20028;-76
2023/01/18 09:19:00;;;;;;;4.68;0.98;;;;;;;0.88;100.00;99225.22;5046657;28;20041;-76
2023/01/18 09:21:30;;;;;;;2.38;0.85;;;;;;;0.84;100.00;99227.19;5045967;28;20493;-76
2023/01/18 09:24:00;;;;;;;9.13;1.08;;;;;;;0.81;100.00;99232.63;5048462;28;20044;-76
2023/01/18 09:26:30;;;;;;;3.33;1.13;;;;;;;0.84;100.00;99243.66;5027790;28;20044;-76
2023/01/18 09:29:00;;;;;;;5.45;1.35;;;;;;;0.88;100.00;99239.03;5034227;28;20044;-76
2023/01/18 09:31:30;;;;;;;8.15;1.38;;;;;;;0.91;100.00;99249.22;5031922;28;20033;-77
2023/01/18 09:33:58;;;;;;;5.35;1.17;;;;;;;0.94;100.00;99255.97;5050897;28;20555;-76
2023/01/18 09:36:26;;;;;;;8.05;2.00;;;;;;;0.96;100.00;99256.69;5022528;28;20070;-77
2023/01/18 09:38:55;;;;;;;5.03;0.68;;;;;;;1.03;100.00;99259.69;5009641;28;20060;-78
2023/01/18 09:41:43;;;;;;;4.72;0.90;;;;;;;1.05;100.00;99255.19;5030554;28;20040;-77
2023/01/18 09:44:20;;;;;;;5.72;0.40;;;;;;;1.10;100.00;99264.31;5044535;28;20041;-76
2023/01/18 09:47:20;;;;;;;2.03;0.57;;;;;;;1.15;100.00;99263.16;4997054;28;20029;-77
2023/01/18 09:49:53;;;;;;;3.13;1.10;;;;;;;1.15;100.00;99256.16;5041359;28;20037;-76
2023/01/18 09:52:32;;;;;;;2.35;0.60;;;;;;;1.20;100.00;99258.44;5021869;28;20080;-76
2023/01/18 09:55:09;;;;;;;6.65;0.63;;;;;;;1.20;100.00;99254.06;5043380;28;20043;-76
2023/01/18 09:57:46;;;;;;;;;;;;;;;1.17;100.00;99261.25;5041412;28;20029;-76
2023/01/18 10:00:25;;;;;;;6.70;1.00;;;;;;;1.24;100.00;99258.09;5011447;28;21485;-76
2023/01/18 10:02:59;;;;;;;9.13;1.73;;;;;;;1.30;100.00;99264.63;5020739;28;20174;-76
2023/01/18 10:05:40;;;;;;;5.50;1.02;;;;;;;1.39;100.00;99262.25;5021160;28;20037;-76
2023/01/18 10:08:21;;;;;;;14.65;1.17;;;;;;;1.45;100.00;99267.03;5051374;28;20033;-76
2023/01/18 10:11:03;;;;;;;4.80;0.80;;;;;;;1.47;100.00;99263.38;5003762;28;20063;-76
2023/01/18 10:13:38;;;;;;;3.38;0.50;;;;;;;1.52;100.00;99270.84;5033455;28;20056;-76
2023/01/18 10:16:13;;;;;;;3.88;0.77;;;;;;;1.53;100.00;99285.50;5026935;28;20030;-77
2023/01/18 10:18:47;;;;;;;6.05;0.73;;;;;;;1.55;100.00;99291.44;5025565;28;20167;-76
2023/01/18 10:21:25;;;;;;;5.63;1.23;;;;;;;1.54;100.00;99288.94;5042432;28;20053;-76
2023/01/18 10:24:08;;;;;;;5.75;0.93;;;;;;;1.57;100.00;99288.72;5015789;28;20033;-76
2023/01/18 10:26:39;;;;;;;5.20;0.73;;;;;;;1.58;100.00;99290.38;5029410;28;20115;-76
2023/01/18 10:29:14;;;;;;;8.18;1.05;;;;;;;1.59;100.00;99285.03;5042471;28;20040;-76
2023/01/18 10:32:02;;;;;;;3.65;0.70;;;;;;;1.59;100.00;99295.47;5029582;28;20028;-76
2023/01/18 10:34:34;;;;;;;2.83;0.60;;;;;;;1.63;100.00;99300.44;5035457;28;20078;-76
2023/01/18 10:37:05;;;;;;;3.97;0.55;;;;;;;1.59;100.00;99294.66;5030310;28;20032;-77
2023/01/18 10:39:38;;;;;;;4.40;0.90;;;;;;;1.58;100.00;99299.03;5046615;28;20453;-76
2023/01/18 10:42:21;;;;;;;12.23;2.83;;;;;;;1.59;100.00;99295.47;5052624;28;20025;-77
2023/01/18 10:44:51;;;;;;;4.57;0.90;;;;;;;1.56;100.00;99302.69;5024367;28;20029;-77
2023/01/18 10:47:20;;;;;;;2.45;0.40;;;;;;;1.57;100.00;99309.56;5030015;28;20055;-77
2023/01/18 10:49:50;;;;;;;2.97;0.73;;;;;;;1.58;100.00;99319.03;5031445;28;20044;-77
2023/01/18 10:52:26;;;;;;;6.72;1.23;;;;;;;1.59;100.00;99312.88;5023940;28;20034;-77
2023/01/18 10:55:04;;;;;;;6.38;0.80;;;;;;;1.59;100.00;99318.09;5044078;28;20037;-77
2023/01/18 10:57:37;;;;;;;10.25;1.17;;;;;;;1.59;100.00;99326.72;5027578;28;20553;-76
2023/01/18 11:00:20;;;;;;;3.80;1.52;;;;;;;1.59;100.00;99313.69;5041749;28;20035;-76
2023/01/18 11:02:53;;;;;;;3.10;0.70;;;;;;;1.57;100.00;99333.84;5026288;28;20029;-76
2023/01/18 11:05:39;;;;;;;4.68;0.70;;;;;;;1.59;100.00;99334.53;5006642;28;20772;-77
2023/01/18 11:08:30;;;;;;;9.98;0.95;;;;;;;1.55;100.00;99342.69;5050885;28;20478;-77
2023/01/18 11:11:15;;;;;;;1.25;0.28;;;;;;;1.47;100.00;99328.47;5051101;28;20036;-77
2023/01/18 11:13:48;;;;;;;14.00;7.45;;;;;;;1.50;100.00;99329.19;5033372;28;20416;-76
2023/01/18 11:16:20;;;;;;;7.35;1.05;;;;;;;1.46;100.00;99329.44;5001792;28;20028;-76
2023/01/18 11:19:16;;;;;;;4.40;0.88;;;;;;;1.50;100.00;99319.59;5034881;28;20486;-77
2023/01/18 11:21:48;;;;;;;2.65;0.40;;;;;;;1.50;100.00;99332.63;5059934;28;20060;-77
2023/01/18 11:24:30;;;;;;;4.93;0.60;;;;;;;1.53;100.00;99319.38;5036764;28;20541;-76
2023/01/18 11:27:10;;;;;;;4.15;0.93;;;;;;;1.57;100.00;99325.19;5037472;28;20029;-77
2023/01/18 11:29:42;;;;;;;2.35;0.85;;;;;;;1.64;100.00;99323.78;5060475;28;20040;-77
2023/01/18 11:32:26;;;;;;;5.93;0.75;;;;;;;1.78;100.00;99332.34;5014050;28;20390;-76
2023/01/18 11:34:57;;;;;;;3.10;0.63;;;;;;;1.91;100.00;99332.25;5039206;28;20043;-77
2023/01/18 11:37:33;;;;;;;5.68;0.50;;;;;;;1.99;100.00;99316.88;5052444;28;20120;-77
2023/01/18 11:40:21;;;;;;;6.55;1.05;;;;;;;2.03;100.00;99315.69;5062305;28;20032;-77
2023/01/18 11:42:52;;;;;;;3.05;0.65;;;;;;;2.03;100.00;99314.84;5078069;28;20112;-77
2023/01/18 11:45:25;;;;;;;3.42;0.57;;;;;;;2.08;100.00;99284.91;5059318;28;20127;-77
2023/01/18 11:48:20;;;;;;;2.38;0.50;;;;;;;2.03;100.00;99280.97;5044739;28;20396;-77
2023/01/18 11:50:57;;;;;;;4.95;1.33;;;;;;;2.05;100.00;99281.69;5077226;28;20136;-77
2023/01/18 11:53:44;;;;;;;;;;;;;;;2.07;100.00;99269.38;5042064;28;20436;-77
2023/01/18 11:56:23;;;;;;;2.10;0.50;;;;;;;2.16;100.00;99270.41;5058715;28;19920;-78
2023/01/18 11:58:51;;;;;;;2.75;0.57;;;;;;;2.18;100.00;99274.56;5041400;28;20150;-77
2023/01/18 12:01:47;;;;;;;2.17;0.70;;;;;;;2.31;100.00;99281.44;5067254;28;20468;-76
2023/01/18 12:04:31;;;;;;;2.75;0.45;;;;;;;2.32;100.00;99296.13;5047368;28;20079;-76
2023/01/18 12:07:26;;;;;;;2.70;0.45;;;;;;;2.26;100.00;99307.88;5067386;28;20035;-77
2023/01/18 12:09:56;;;;;;;2.33;0.30;;;;;;;2.20;100.00;99310.94;5059533;28;20135;-77
2023/01/18 12:12:23;;;;;;;5.80;0.60;;;;;;;2.18;100.00;99323.28;5054405;28;20032;-77
2023/01/18 12:15:03;;;;;;;2.28;0.90;;;;;;;2.21;100.00;99326.47;5042489;28;20405;-77
2023/01/18 12:18:05;;;;;;;3.75;0.45;;;;;;;2.15;100.00;99328.72;5060075;28;20502;-77
2023/01/18 12:20:39;;;;;;;3.45;0.70;;;;;;;2.07;100.00;99332.75;5029227;28;20042;-77
2023/01/18 12:23:22;;;;;;;2.40;0.57;;;;;;;2.13;100.00;99315.81;5042162;28;20412;-77
2023/01/18 12:25:54;;;;;;;2.65;0.60;;;;;;;2.21;100.00;99326.47;5036644;28;20393;-79
2023/01/18 12:28:41;;;;;;;1.13;0.52;;;;;;;2.31;100.00;99338.81;5053266;28;20040;-77